Time;durP1;ratioP1;P1;durP2;ratioP2;P2;SDS_P1;SDS_P2;PMS_P1;PMS_P2;Temp;Humidity;BMP_temperature;BMP_pressure;BME280_temperature;BME280_humidity;BME280_pressure;Samples;Min_cycle;Max_cycle;Signal;HPM_P1;HPM_P2
2023/08/13 00:01:24;;;;;;;2.70;2.50;;;;;;;21.35;54.99;93745.78;5072365;28;20090;-90
2023/08/13 00:03:49;;;;;;;2.67;2.47;;;;;;;21.35;55.16;93748.53;5074944;28;20094;-88
2023/08/13 00:06:14;;;;;;;3.05;2.75;;;;;;;21.35;55.39;93749.25;5091863;28;20066;-92
2023/08/13 00:08:42;;;;;;;2.65;2.40;;;;;;;21.34;55.21;93736.78;5085395;28;20040;-91
2023/08/13 00:11:09;;;;;;;2.80;2.28;;;;;;;21.35;55.21;93737.53;5089610;28;20188;-92
2023/08/13 00:13:35;;;;;;;3.35;2.75;;;;;;;21.34;55.13;93744.28;5092940;28;20406;-88
2023/08/13 00:16:01;;;;;;;2.83;2.63;;;;;;;21.34;55.22;93747.03;5089829;28;20044;-89
2023/08/13 00:18:28;;;;;;;2.72;2.53;;;;;;;21.34;55.16;93739.53;5096106;28;20037;-91
2023/08/13 00:20:53;;;;;;;2.47;2.28;;;;;;;21.33;55.43;93738.03;5057927;28;20040;-90
2023/08/13 00:23:19;;;;;;;2.60;2.40;;;;;;;21.34;55.10;93755.28;5056616;28;20025;-91
2023/08/13 00:25:44;;;;;;;3.03;2.70;;;;;;;21.34;55.26;93758.03;5085099;28;20066;-90
2023/08/13 00:28:09;;;;;;;3.20;2.90;;;;;;;21.34;55.19;93756.03;5090795;28;20029;-91
2023/08/13 00:30:36;;;;;;;2.90;2.50;;;;;;;21.34;55.10;93747.78;5091564;28;20055;-89
2023/08/13 00:33:01;;;;;;;3.13;2.80;;;;;;;21.34;55.12;93756.03;5054464;28;20040;-92
2023/08/13 00:35:27;;;;;;;3.00;2.72;;;;;;;21.32;55.01;93758.56;5073742;28;20040;-90
2023/08/13 00:37:53;;;;;;;2.85;2.55;;;;;;;21.33;55.17;93759.28;5071958;28;20098;-92
2023/08/13 00:40:19;;;;;;;2.70;2.45;;;;;;;21.31;55.21;93757.06;5077766;28;20048;-91
2023/08/13 00:42:44;;;;;;;2.72;2.40;;;;;;;21.32;55.28;93755.81;5071450;28;20064;-90
2023/08/13 00:45:09;;;;;;;3.03;2.60;;;;;;;21.32;55.18;93758.56;5054340;28;20040;-90
2023/08/13 00:47:35;;;;;;;2.65;2.45;;;;;;;21.31;55.44;93756.31;5071185;28;20036;-92
2023/08/13 00:50:03;;;;;;;3.92;2.38;;;;;;;21.32;55.16;93761.31;5059958;28;20398;-91
2023/08/13 00:52:29;;;;;;;3.15;2.85;;;;;;;21.32;55.25;93755.06;5070991;28;20100;-90
2023/08/13 00:54:58;;;;;;;2.63;2.42;;;;;;;21.30;55.17;93757.59;5077005;28;20041;-88
2023/08/13 00:57:24;;;;;;;3.05;2.75;;;;;;;21.31;54.95;93754.31;5054137;28;20037;-90
2023/08/13 00:59:52;;;;;;;2.70;2.50;;;;;;;21.31;55.32;93759.81;5037213;28;20052;-88
2023/08/13 01:02:17;;;;;;;3.20;2.90;;;;;;;21.31;55.27;93759.81;5053654;28;20041;-91
2023/08/13 01:04:43;;;;;;;2.95;2.60;;;;;;;21.32;55.12;93760.56;5038763;28;20040;-90
2023/08/13 01:07:16;;;;;;;2.70;2.50;;;;;;;21.32;55.28;93757.81;5070765;28;20398;-90
2023/08/13 01:10:30;;;;;;;3.08;2.40;;;;;;;21.29;55.36;93754.09;5057058;28;20058;-92
2023/08/13 01:13:17;;;;;;;3.42;3.00;;;;;;;21.30;55.45;93750.06;5039309;28;20153;-90
2023/08/13 01:15:42;;;;;;;3.45;2.72;;;;;;;21.31;55.44;93750.81;5030377;28;20041;-92
2023/08/13 01:18:10;;;;;;;3.10;2.80;;;;;;;21.28;55.21;93760.84;5012517;28;20052;-89
2023/08/13 01:20:39;;;;;;;3.45;2.83;;;;;;;21.29;55.42;93756.09;5010820;28;20070;-92
2023/08/13 01:23:04;;;;;;;2.78;2.42;;;;;;;21.28;55.39;93749.84;5032809;28;20230;-91
2023/08/13 01:25:30;;;;;;;2.75;2.47;;;;;;;21.29;55.58;93748.59;5023688;28;20053;-90
2023/08/13 01:28:16;;;;;;;3.20;2.40;;;;;;;21.28;55.23;93762.84;4979562;28;20041;-91
2023/08/13 01:30:44;;;;;;;3.50;2.53;;;;;;;21.29;55.55;93764.34;5013041;28;20067;-90
2023/08/13 01:33:12;;;;;;;3.00;2.70;;;;;;;21.28;55.39;93765.59;5030235;28;20045;-88
2023/08/13 01:35:38;;;;;;;2.80;2.50;;;;;;;21.29;55.33;93767.84;4996691;28;20746;-92
2023/08/13 01:38:04;;;;;;;3.25;2.78;;;;;;;21.29;55.43;93764.34;4979459;28;20038;-90
2023/08/13 01:40:30;;;;;;;2.90;2.67;;;;;;;21.28;55.23;93762.84;4996025;28;20053;-92
2023/08/13 01:42:55;;;;;;;2.55;2.25;;;;;;;21.27;55.35;93753.88;4987847;28;20040;-92
2023/08/13 01:45:21;;;;;;;2.75;2.55;;;;;;;21.28;55.49;93769.09;5060758;28;20123;-91
2023/08/13 01:47:46;;;;;;;3.08;2.70;;;;;;;21.29;55.36;93764.34;5073689;28;20035;-92
2023/08/13 01:50:12;;;;;;;3.03;2.45;;;;;;;21.28;55.23;93768.34;5059214;28;20147;-88
2023/08/13 01:52:38;;;;;;;3.10;2.80;;;;;;;21.27;55.22;93751.13;5070990;28;20075;-89
2023/08/13 01:55:05;;;;;;;2.83;2.53;;;;;;;21.28;55.48;93749.84;5065116;28;20101;-87
2023/08/13 01:57:30;;;;;;;2.67;2.25;;;;;;;21.28;55.30;93752.59;5069850;28;20040;-92
2023/08/13 01:59:56;;;;;;;3.33;2.75;;;;;;;21.27;55.32;93753.88;5044713;28;20071;-91
2023/08/13 02:02:21;;;;;;;2.85;2.50;;;;;;;21.29;55.38;93747.84;5086436;28;20349;-92
2023/08/13 02:04:46;;;;;;;3.35;2.70;;;;;;;21.29;55.46;93756.84;5071038;28;20047;-93
2023/08/13 02:07:12;;;;;;;3.03;2.75;;;;;;;21.28;55.29;93754.59;5089872;28;20390;-89
2023/08/13 02:09:37;;;;;;;2.58;2.38;;;;;;;21.28;55.56;93760.09;5063967;28;20037;-88
2023/08/13 02:12:03;;;;;;;3.05;2.60;;;;;;;21.27;55.44;93764.88;5068498;28;20071;-89
2023/08/13 02:14:28;;;;;;;3.08;2.58;;;;;;;21.28;55.29;93768.34;5045816;28;20513;-91
2023/08/13 02:16:53;;;;;;;3.08;2.78;;;;;;;21.28;55.71;93755.34;5070017;28;20406;-92
2023/08/13 02:19:19;;;;;;;3.70;2.70;;;;;;;21.27;55.50;93762.13;5059865;28;20161;-89
2023/08/13 02:21:44;;;;;;;2.50;2.17;;;;;;;21.28;55.37;93762.84;5052685;28;20037;-88
2023/08/13 02:24:10;;;;;;;2.42;2.22;;;;;;;21.27;55.32;93764.88;5074620;28;20059;-89
2023/08/13 02:26:35;;;;;;;2.65;2.33;;;;;;;21.28;55.38;93771.09;5056311;28;20040;-92
2023/08/13 02:29:00;;;;;;;2.78;2.22;;;;;;;21.27;55.44;93766.88;5073136;28;20036;-91
2023/08/13 02:31:26;;;;;;;3.13;2.80;;;;;;;21.27;55.44;93778.63;5068627;28;20041;-93
2023/08/13 02:33:51;;;;;;;2.88;2.60;;;;;;;21.26;55.37;93770.88;5055670;28;20422;-91
2023/08/13 02:36:17;;;;;;;2.60;2.40;;;;;;;21.27;55.32;93769.63;5072397;28;20335;-92
2023/08/13 02:38:42;;;;;;;4.10;2.65;;;;;;;21.26;55.50;93777.13;5089563;28;20032;-93
2023/08/13 02:41:07;;;;;;;2.33;2.13;;;;;;;21.27;55.35;93772.38;5068621;28;20048;-90
2023/08/13 02:43:52;;;;;;;3.42;2.80;;;;;;;21.24;55.40;93768.66;5054558;28;20047;-92
2023/08/13 02:46:18;;;;;;;2.63;2.33;;;;;;;21.27;55.47;93778.63;5081684;28;20032;-88
2023/08/13 02:48:45;;;;;;;2.78;2.25;;;;;;;21.24;55.48;93776.91;5069138;28;20060;-91
2023/08/13 02:51:11;;;;;;;2.40;2.20;;;;;;;21.26;55.34;93782.63;5068436;28;20044;-87
2023/08/13 02:53:37;;;;;;;3.20;2.90;;;;;;;21.26;55.54;93779.13;5051776;28;20036;-89
2023/08/13 02:56:02;;;;;;;3.20;2.78;;;;;;;21.26;55.52;93784.63;5110273;28;20066;-90
2023/08/13 02:58:27;;;;;;;3.22;2.65;;;;;;;21.26;55.48;93781.88;5074822;28;20035;-91
2023/08/13 03:00:53;;;;;;;2.58;2.03;;;;;;;21.27;55.50;93788.88;5075083;28;20047;-89
2023/08/13 03:03:18;;;;;;;2.45;1.98;;;;;;;21.26;55.13;93788.13;5058595;28;20036;-91
2023/08/13 03:05:44;;;;;;;2.58;2.38;;;;;;;21.25;55.36;93780.41;5068017;28;20046;-90
2023/08/13 03:08:09;;;;;;;2.55;2.20;;;;;;;21.25;55.45;93777.66;5075724;28;20529;-90
2023/08/13 03:10:35;;;;;;;2.40;2.20;;;;;;;21.24;55.67;93782.41;5083584;28;20040;-92
2023/08/13 03:13:00;;;;;;;3.13;2.78;;;;;;;;;;5072663;28;20062;-91
2023/08/13 03:15:25;;;;;;;3.03;2.73;;;;;;;21.24;55.40;93776.16;5089578;28;20039;-91
2023/08/13 03:17:51;;;;;;;2.60;2.33;;;;;;;;;;5095680;28;20112;-92
2023/08/13 03:20:17;;;;;;;3.20;2.60;;;;;;;21.26;55.51;93777.13;5076594;28;20043;-92
2023/08/13 03:22:42;;;;;;;3.25;2.50;;;;;;;21.24;55.48;93781.66;5079087;28;20752;-88
2023/08/13 03:25:08;;;;;;;2.63;2.30;;;;;;;21.23;55.47;93771.91;5078370;28;20089;-90
2023/08/13 03:27:33;;;;;;;3.10;2.47;;;;;;;;;;5095941;28;20047;-91
2023/08/13 03:29:59;;;;;;;2.70;2.50;;;;;;;21.22;55.53;93782.19;5087265;28;20126;-90
2023/08/13 03:32:25;;;;;;;3.40;2.80;;;;;;;21.23;55.55;93794.66;5056377;28;20449;-93
2023/08/13 03:34:51;;;;;;;3.10;2.67;;;;;;;21.24;55.61;93774.16;5083415;28;20054;-89
2023/08/13 03:37:16;;;;;;;2.58;2.15;;;;;;;21.24;55.60;93778.91;5071347;28;20510;-93
2023/08/13 03:39:42;;;;;;;2.35;2.15;;;;;;;21.23;55.68;93785.66;5078272;28;20032;-93
2023/08/13 03:42:08;;;;;;;3.13;2.53;;;;;;;21.24;55.58;93790.66;5055081;28;20033;-90
2023/08/13 03:44:33;;;;;;;2.60;2.40;;;;;;;21.23;55.50;93777.41;5072656;28;20414;-90
2023/08/13 03:46:59;;;;;;;2.47;2.28;;;;;;;21.23;55.46;93788.41;5095793;28;20556;-89
2023/08/13 03:49:24;;;;;;;3.05;2.75;;;;;;;21.24;55.45;93790.66;5072967;28;20043;-92
2023/08/13 03:51:50;;;;;;;3.42;2.60;;;;;;;21.23;55.65;93791.91;5061249;28;20052;-90
2023/08/13 03:54:15;;;;;;;3.17;2.67;;;;;;;21.23;55.40;93793.91;5062601;28;20573;-90
2023/08/13 03:56:41;;;;;;;2.50;2.30;;;;;;;21.23;55.73;93800.16;5067047;28;20067;-92
2023/08/13 03:59:06;;;;;;;2.83;2.45;;;;;;;21.24;55.59;93792.66;5075085;28;20043;-90
2023/08/13 04:01:31;;;;;;;3.15;2.85;;;;;;;21.24;55.47;93795.41;5054680;28;20040;-93
2023/08/13 04:03:57;;;;;;;2.80;2.58;;;;;;;21.23;55.68;93796.66;5090826;28;20502;-93
2023/08/13 04:06:22;;;;;;;2.95;2.10;;;;;;;21.23;55.50;93794.66;5058120;28;20059;-88
2023/08/13 04:08:48;;;;;;;2.92;2.70;;;;;;;21.23;55.42;93802.16;5076546;28;20043;-92
2023/08/13 04:11:13;;;;;;;2.67;2.33;;;;;;;21.23;55.49;93802.91;5063169;28;20035;-92
2023/08/13 04:13:39;;;;;;;3.47;2.80;;;;;;;21.22;55.49;93798.66;5077176;28;20036;-89
2023/08/13 04:16:04;;;;;;;3.38;2.90;;;;;;;21.23;55.61;93808.41;5075101;28;20560;-89
2023/08/13 04:18:29;;;;;;;2.53;2.33;;;;;;;21.23;55.52;93813.16;5092862;28;20047;-91
2023/08/13 04:20:55;;;;;;;3.33;2.38;;;;;;;21.26;55.63;93806.63;5067162;28;20040;-89
2023/08/13 04:23:20;;;;;;;2.90;2.70;;;;;;;21.26;55.40;93812.88;5080939;27;20055;-90
2023/08/13 04:25:46;;;;;;;2.67;2.35;;;;;;;;;;5091723;28;20035;-89
2023/08/13 04:28:11;;;;;;;3.13;2.83;;;;;;;21.25;55.54;93816.13;5112849;28;20048;-91
2023/08/13 04:30:36;;;;;;;2.95;2.65;;;;;;;21.25;55.58;93813.38;5066142;27;20331;-92
2023/08/13 04:33:02;;;;;;;2.65;2.45;;;;;;;21.25;55.66;93821.63;5076173;28;20032;-89
2023/08/13 04:35:29;;;;;;;3.78;2.65;;;;;;;21.24;55.61;93815.41;5064849;28;20046;-92
2023/08/13 04:37:54;;;;;;;3.03;2.45;;;;;;;21.27;55.58;93819.13;5058499;28;20506;-90
2023/08/13 04:40:20;;;;;;;2.90;2.60;;;;;;;21.24;55.53;93820.91;5074589;28;20069;-93
2023/08/13 04:42:45;;;;;;;2.50;2.30;;;;;;;21.26;55.45;93829.38;5079290;28;20089;-93
2023/08/13 04:45:15;;;;;;;2.78;2.58;;;;;;;21.26;55.51;93817.63;5084728;27;20046;-89
2023/08/13 04:47:41;;;;;;;2.95;2.38;;;;;;;21.27;55.51;93825.34;5100281;27;20039;-89
2023/08/13 04:50:07;;;;;;;2.95;2.60;;;;;;;21.28;55.50;93824.09;5111913;27;20623;-93
2023/08/13 04:52:32;;;;;;;2.92;2.45;;;;;;;21.29;55.67;93820.09;5077900;28;20081;-89
2023/08/13 04:54:58;;;;;;;3.10;2.40;;;;;;;21.31;55.49;93816.81;5083202;27;20035;-88
2023/08/13 04:57:23;;;;;;;2.60;2.40;;;;;;;21.30;55.50;93818.81;5067980;28;20514;-92
2023/08/13 04:59:49;;;;;;;3.10;2.80;;;;;;;21.31;55.68;93825.06;5060012;28;20032;-88
2023/08/13 05:02:14;;;;;;;2.95;2.65;;;;;;;21.32;55.68;93824.56;5077974;28;20599;-92
2023/08/13 05:04:40;;;;;;;2.63;2.25;;;;;;;21.34;55.59;93826.78;5078257;28;20031;-89
2023/08/13 05:07:06;;;;;;;2.90;2.65;;;;;;;21.34;55.50;93816.53;5076030;28;20060;-89
2023/08/13 05:09:31;;;;;;;3.05;2.75;;;;;;;21.35;55.40;93818.00;5079299;28;20043;-92
2023/08/13 05:11:57;;;;;;;2.70;2.50;;;;;;;21.36;55.31;93814.00;5078176;28;20036;-93
2023/08/13 05:14:22;;;;;;;2.50;2.30;;;;;;;21.37;55.39;93823.75;5079234;27;20084;-92
2023/08/13 05:16:48;;;;;;;2.60;2.40;;;;;;;21.39;55.38;93818.47;5080246;27;20083;-91
2023/08/13 05:19:13;;;;;;;2.55;2.35;;;;;;;21.40;55.47;93811.69;5079750;27;20247;-88
2023/08/13 05:21:38;;;;;;;2.88;2.58;;;;;;;21.42;55.30;93817.44;5065353;27;20032;-92
2023/08/13 05:24:05;;;;;;;2.80;2.10;;;;;;;21.44;55.35;93817.63;5097671;27;20496;-92
2023/08/13 05:26:32;;;;;;;2.75;2.50;;;;;;;21.45;55.47;93819.13;5068843;28;20047;-88
2023/08/13 05:28:57;;;;;;;3.15;2.80;;;;;;;21.49;55.45;93821.56;5074041;28;20039;-90
2023/08/13 05:31:23;;;;;;;2.60;2.30;;;;;;;21.50;55.44;93817.56;5059716;27;20393;-90
2023/08/13 05:33:48;;;;;;;2.30;2.05;;;;;;;21.50;55.45;93825.81;5078608;28;20028;-91
2023/08/13 05:36:13;;;;;;;3.00;2.50;;;;;;;21.53;55.22;93817.25;5060793;27;20031;-90
2023/08/13 05:38:39;;;;;;;3.03;2.47;;;;;;;21.55;55.44;93808.50;5061508;28;20411;-92
2023/08/13 05:41:05;;;;;;;3.08;2.60;;;;;;;21.55;55.20;93817.47;5073143;28;20040;-91
2023/08/13 05:43:31;;;;;;;2.42;2.22;;;;;;;21.59;55.25;93813.69;5081327;28;20038;-88
2023/08/13 05:45:56;;;;;;;3.10;2.42;;;;;;;21.58;56.01;93812.94;5076898;28;20039;-89
2023/08/13 05:48:22;;;;;;;2.95;2.53;;;;;;;21.59;55.69;93808.94;5056664;28;20135;-89
2023/08/13 05:50:47;;;;;;;2.75;2.53;;;;;;;21.60;55.53;93810.41;5059857;28;20032;-91
2023/08/13 05:53:13;;;;;;;2.85;2.65;;;;;;;21.63;55.74;93805.88;5109097;27;20047;-92
2023/08/13 05:55:38;;;;;;;3.70;2.60;;;;;;;21.65;55.80;93817.84;5096827;27;20031;-91
2023/08/13 05:58:05;;;;;;;2.80;2.60;;;;;;;21.66;55.45;93804.81;5080445;28;20059;-90
2023/08/13 06:00:31;;;;;;;2.63;2.40;;;;;;;21.67;55.74;93806.31;5064267;27;20484;-92
2023/08/13 06:02:56;;;;;;;3.10;2.80;;;;;;;21.68;55.97;93813.28;5079714;27;20359;-90
2023/08/13 06:05:22;;;;;;;3.60;3.00;;;;;;;21.69;55.83;93804.53;5078326;27;20039;-90
2023/08/13 06:07:47;;;;;;;4.28;2.58;;;;;;;21.71;55.96;93810.25;5058706;28;20543;-93
2023/08/13 06:10:13;;;;;;;3.25;2.72;;;;;;;21.72;55.79;93811.72;5092061;27;20494;-90
2023/08/13 06:12:38;;;;;;;2.70;2.47;;;;;;;21.73;55.67;93804.97;5064975;28;20040;-88
2023/08/13 06:15:04;;;;;;;3.13;2.60;;;;;;;21.76;55.75;93816.94;5072622;28;20035;-89
2023/08/13 06:17:30;;;;;;;3.00;2.80;;;;;;;21.76;55.58;93806.69;5071869;28;20429;-88
2023/08/13 06:19:55;;;;;;;3.08;2.78;;;;;;;21.76;55.64;93809.44;5090991;28;20513;-91
2023/08/13 06:22:20;;;;;;;2.83;2.47;;;;;;;21.78;55.77;93817.16;5087439;28;20059;-91
2023/08/13 06:24:47;;;;;;;2.88;2.58;;;;;;;21.78;55.63;93815.16;5093431;28;20042;-90
2023/08/13 06:27:12;;;;;;;2.83;2.40;;;;;;;21.80;55.80;93809.88;5074740;27;20047;-88
2023/08/13 06:29:38;;;;;;;2.78;2.50;;;;;;;21.82;55.61;93806.59;5080037;27;20415;-91
2023/08/13 06:32:03;;;;;;;3.03;2.72;;;;;;;21.83;56.08;93813.59;5104241;28;20527;-89
2023/08/13 06:34:29;;;;;;;3.33;2.65;;;;;;;21.84;55.68;93802.06;5064581;28;20302;-92
2023/08/13 06:36:54;;;;;;;5.97;3.13;;;;;;;21.85;55.72;93808.31;5089127;27;20454;-91
2023/08/13 06:39:21;;;;;;;3.40;2.38;;;;;;;21.86;55.65;93809.78;5073122;28;20040;-90
2023/08/13 06:41:47;;;;;;;2.72;2.53;;;;;;;21.87;55.63;93820.25;5071820;27;20059;-91
2023/08/13 06:44:18;;;;;;;3.25;2.67;;;;;;;21.88;55.83;93827.25;5078249;27;20051;-93
2023/08/13 06:46:44;;;;;;;2.58;2.38;;;;;;;21.93;55.67;93822.19;5080423;27;20381;-90
2023/08/13 06:49:09;;;;;;;3.30;2.50;;;;;;;21.91;55.74;93825.47;5094722;27;20035;-88
2023/08/13 06:51:35;;;;;;;2.60;2.40;;;;;;;21.92;55.79;93820.69;5062877;28;20047;-90
2023/08/13 06:54:00;;;;;;;2.97;2.38;;;;;;;21.95;55.42;93822.41;5057804;28;20047;-91
2023/08/13 06:56:25;;;;;;;2.40;2.20;;;;;;;21.95;55.38;93831.41;5057695;28;20081;-91
2023/08/13 06:58:51;;;;;;;3.30;2.88;;;;;;;21.96;55.39;93830.13;5074652;28;20046;-93
2023/08/13 07:01:16;;;;;;;2.70;2.45;;;;;;;21.96;55.48;93832.91;5064885;28;20046;-92
2023/08/13 07:03:44;;;;;;;2.97;2.70;;;;;;;21.98;55.60;93829.63;5078097;28;20035;-88
2023/08/13 07:06:09;;;;;;;2.38;2.17;;;;;;;21.98;55.37;93829.63;5077867;28;20092;-89
2023/08/13 07:08:35;;;;;;;2.88;2.22;;;;;;;22.01;55.52;93821.09;5080713;28;20142;-93
2023/08/13 07:11:00;;;;;;;2.30;2.10;;;;;;;22.01;55.60;93825.84;5075255;28;20081;-90
2023/08/13 07:13:26;;;;;;;2.50;2.30;;;;;;;22.01;55.61;93814.84;5070872;28;20043;-91
2023/08/13 07:15:51;;;;;;;2.67;2.25;;;;;;;22.03;55.62;93828.81;5075657;28;20035;-88
2023/08/13 07:18:16;;;;;;;2.95;2.45;;;;;;;22.02;55.47;93830.84;5070687;28;20072;-90
2023/08/13 07:20:42;;;;;;;2.40;2.10;;;;;;;22.04;55.59;93830.31;5063269;28;20065;-90
2023/08/13 07:23:18;;;;;;;2.83;2.38;;;;;;;22.02;55.57;93828.09;5088413;28;20040;-89
2023/08/13 07:25:44;;;;;;;3.15;2.63;;;;;;;22.05;55.37;93834.56;5068597;28;20028;-90
2023/08/13 07:28:09;;;;;;;3.58;2.83;;;;;;;22.07;55.55;93826.50;5072675;28;20291;-91
2023/08/13 07:30:35;;;;;;;3.10;2.50;;;;;;;22.06;55.44;93827.78;5075173;28;20516;-92
2023/08/13 07:33:01;;;;;;;3.75;2.60;;;;;;;22.07;55.79;93834.78;5076556;28;20040;-91
2023/08/13 07:35:27;;;;;;;2.60;2.40;;;;;;;22.08;55.69;93833.50;5058558;28;20036;-90
2023/08/13 07:37:52;;;;;;;3.20;2.90;;;;;;;22.07;55.83;93829.25;5070137;28;20035;-94
2023/08/13 07:40:18;;;;;;;3.00;2.65;;;;;;;22.08;55.95;93836.25;5078281;28;20039;-92
2023/08/13 07:42:44;;;;;;;3.30;2.47;;;;;;;22.08;56.00;93839.00;5057231;28;20031;-92
2023/08/13 07:45:10;;;;;;;3.95;3.22;;;;;;;22.08;56.05;93831.50;5075411;28;20085;-91
2023/08/13 07:47:36;;;;;;;2.75;2.38;;;;;;;22.07;56.08;93827.25;5075868;27;20035;-91
2023/08/13 07:50:04;;;;;;;2.95;2.60;;;;;;;22.07;56.27;93821.75;5098129;27;20580;-90
2023/08/13 07:52:32;;;;;;;2.33;2.13;;;;;;;22.08;55.78;93828.00;5061810;28;20031;-91
2023/08/13 07:54:57;;;;;;;2.92;2.55;;;;;;;22.08;56.06;93825.25;5077992;28;20082;-92
2023/08/13 07:57:24;;;;;;;4.32;3.13;;;;;;;22.05;56.04;93824.28;5084430;27;20489;-91
2023/08/13 07:59:49;;;;;;;2.70;2.50;;;;;;;22.05;56.21;93821.53;5074992;28;20035;-91
2023/08/13 08:02:15;;;;;;;2.70;2.50;;;;;;;22.06;55.99;93825.78;5088813;27;20047;-91
2023/08/13 08:04:40;;;;;;;2.80;2.38;;;;;;;22.05;56.07;93823.53;5098123;27;20047;-89
2023/08/13 08:07:05;;;;;;;3.17;2.70;;;;;;;22.05;55.81;93821.53;5074412;28;20520;-93
2023/08/13 08:09:31;;;;;;;2.58;2.25;;;;;;;22.06;55.84;93822.28;5064801;28;20374;-93
2023/08/13 08:11:56;;;;;;;2.80;2.60;;;;;;;22.06;55.61;93825.03;5069650;27;20036;-92
2023/08/13 08:14:22;;;;;;;2.90;2.58;;;;;;;22.05;55.59;93829.78;5058745;28;20048;-91
2023/08/13 08:16:47;;;;;;;4.63;2.42;;;;;;;22.07;55.57;93826.50;5061240;28;20040;-93
2023/08/13 08:19:13;;;;;;;3.22;2.50;;;;;;;22.06;55.17;93834.03;5104707;27;20032;-91
2023/08/13 08:21:38;;;;;;;2.40;2.20;;;;;;;22.05;55.82;93818.78;5066215;27;20080;-92
2023/08/13 08:24:04;;;;;;;2.65;2.42;;;;;;;22.07;55.67;93824.50;5056877;28;20048;-93
2023/08/13 08:26:30;;;;;;;2.40;2.03;;;;;;;22.06;55.38;93825.03;5077164;28;20356;-94
2023/08/13 08:28:56;;;;;;;2.42;2.22;;;;;;;22.05;55.59;93812.53;5074482;28;20339;-94
2023/08/13 08:31:22;;;;;;;2.50;2.30;;;;;;;22.06;55.37;93817.50;5080145;27;21621;-89
2023/08/13 08:33:48;;;;;;;2.78;2.47;;;;;;;22.06;55.80;93803.00;5094636;27;20062;-92
2023/08/13 08:36:13;;;;;;;3.00;2.70;;;;;;;22.05;55.56;93807.03;5058532;28;20482;-92
2023/08/13 08:38:39;;;;;;;2.35;2.13;;;;;;;22.06;55.67;93805.75;5067966;27;20047;-93
2023/08/13 08:41:04;;;;;;;2.88;2.38;;;;;;;22.05;55.69;93802.25;5069110;28;20047;-92
2023/08/13 08:43:31;;;;;;;2.35;2.15;;;;;;;22.06;55.67;93803.00;5074206;28;20097;-91
2023/08/13 08:46:00;;;;;;;2.45;2.17;;;;;;;22.06;55.48;93806.50;5058398;28;20047;-91
2023/08/13 08:48:27;;;;;;;3.00;2.23;;;;;;;22.07;55.79;93804.50;5068501;27;20035;-92
2023/08/13 08:50:52;;;;;;;2.83;2.30;;;;;;;22.07;55.87;93801.72;5088390;28;20119;-92
2023/08/13 08:53:18;;;;;;;2.53;2.28;;;;;;;22.07;55.82;93804.50;5072902;27;20031;-91
2023/08/13 08:55:43;;;;;;;3.67;2.53;;;;;;;22.07;55.85;93799.72;5091963;28;20054;-90
2023/08/13 08:58:09;;;;;;;2.85;2.58;;;;;;;22.07;55.67;93799.72;5058824;28;20397;-92
2023/08/13 09:00:36;;;;;;;2.30;2.10;;;;;;;22.08;55.69;93792.94;5075210;27;20031;-90
2023/08/13 09:03:03;;;;;;;2.72;2.45;;;;;;;22.07;55.57;93782.47;5072143;28;20128;-92
2023/08/13 09:05:31;;;;;;;2.20;1.95;;;;;;;22.05;55.93;93787.75;5056757;28;20115;-91
2023/08/13 09:07:56;;;;;;;2.70;2.38;;;;;;;22.08;56.07;93781.19;5067849;27;20051;-93
2023/08/13 09:10:22;;;;;;;3.80;2.88;;;;;;;22.07;55.76;93788.72;5064099;28;20047;-92
2023/08/13 09:12:47;;;;;;;2.72;2.28;;;;;;;22.08;56.10;93790.19;5077214;28;20066;-90
2023/08/13 09:15:13;;;;;;;2.65;2.10;;;;;;;22.07;55.85;93788.72;5075493;28;20058;-90
2023/08/13 09:17:39;;;;;;;2.67;2.40;;;;;;;22.08;55.92;93789.44;5088195;27;20119;-93
2023/08/13 09:20:18;;;;;;;2.42;2.22;;;;;;;22.06;55.76;93781.72;5089277;28;20071;-91
2023/08/13 09:22:48;;;;;;;3.95;2.00;;;;;;;22.07;55.76;93774.94;5087480;27;20104;-91
2023/08/13 09:25:14;;;;;;;4.03;2.05;;;;;;;22.08;55.87;93778.44;5078836;27;20043;-92
2023/08/13 09:27:40;;;;;;;2.30;2.10;;;;;;;22.06;56.09;93784.47;5078166;28;20192;-92
2023/08/13 09:30:09;;;;;;;2.53;2.22;;;;;;;22.05;55.91;93777.47;5065243;27;20471;-91
2023/08/13 09:32:35;;;;;;;2.53;2.15;;;;;;;22.07;56.18;93776.94;5079838;27;20094;-93
2023/08/13 09:35:03;;;;;;;2.22;2.00;;;;;;;22.07;55.99;93783.19;5088118;28;20046;-91
2023/08/13 09:37:29;;;;;;;2.33;2.13;;;;;;;22.08;55.87;93779.19;5058965;28;20078;-92
2023/08/13 09:39:57;;;;;;;2.70;2.25;;;;;;;22.07;56.01;93779.72;5076922;27;20512;-91
2023/08/13 09:42:23;;;;;;;2.45;2.25;;;;;;;22.07;55.87;93777.69;5085865;28;20055;-92
2023/08/13 09:44:51;;;;;;;2.90;2.70;;;;;;;22.08;56.07;93772.94;5072982;28;20043;-91
2023/08/13 09:47:17;;;;;;;2.95;2.58;;;;;;;22.07;56.05;93768.69;5065074;27;20059;-91
2023/08/13 09:49:43;;;;;;;3.15;2.65;;;;;;;22.07;55.95;93782.47;5072926;28;20121;-91
2023/08/13 09:52:09;;;;;;;2.70;2.50;;;;;;;22.08;55.81;93786.69;5076857;28;20059;-90
2023/08/13 09:54:43;;;;;;;2.70;2.50;;;;;;;22.07;56.02;93776.94;5052390;28;20457;-91
2023/08/13 09:57:10;;;;;;;2.78;2.47;;;;;;;22.07;55.98;93777.69;5073511;28;20044;-92
2023/08/13 09:59:35;;;;;;;2.75;2.55;;;;;;;22.06;55.80;93781.72;5068657;28;20119;-93
2023/08/13 10:02:01;;;;;;;2.42;2.17;;;;;;;22.07;56.08;93782.47;5085991;28;20119;-92
2023/08/13 10:04:28;;;;;;;2.92;2.58;;;;;;;22.08;56.18;93783.94;5071478;28;20125;-91
2023/08/13 10:06:54;;;;;;;2.40;2.20;;;;;;;22.06;55.85;93781.72;5054412;28;20036;-92
2023/08/13 10:09:19;;;;;;;3.08;2.40;;;;;;;22.07;56.12;93785.97;5087958;28;20051;-92
2023/08/13 10:11:45;;;;;;;3.22;2.58;;;;;;;22.08;55.66;93786.69;5073803;28;20042;-91
2023/08/13 10:14:10;;;;;;;2.28;2.08;;;;;;;22.08;55.82;93779.19;5051951;28;20047;-91
2023/08/13 10:16:37;;;;;;;3.13;2.35;;;;;;;22.08;55.91;93787.44;5069044;28;20482;-92
2023/08/13 10:19:02;;;;;;;2.63;2.40;;;;;;;22.08;56.12;93789.44;5075435;28;20044;-91
2023/08/13 10:21:35;;;;;;;2.63;2.42;;;;;;;22.07;55.95;93785.97;5064000;28;20035;-92
2023/08/13 10:24:11;;;;;;;2.47;2.22;;;;;;;22.07;56.00;93785.97;5090395;28;20044;-91
2023/08/13 10:26:36;;;;;;;3.08;2.55;;;;;;;22.09;55.94;93777.16;5075401;28;20039;-91
2023/08/13 10:29:15;;;;;;;2.35;2.15;;;;;;;22.07;55.90;93776.94;5076534;28;20089;-90
2023/08/13 10:31:48;;;;;;;2.40;2.20;;;;;;;22.08;55.92;93787.44;5077512;28;20023;-92
2023/08/13 10:34:16;;;;;;;2.47;2.20;;;;;;;22.08;55.99;93781.94;5092047;28;20526;-90
2023/08/13 10:36:53;;;;;;;2.70;2.35;;;;;;;22.07;56.02;93783.19;5073237;28;20060;-93
2023/08/13 10:39:39;;;;;;;3.05;2.25;;;;;;;22.07;56.02;93772.19;5090957;28;20157;-92
2023/08/13 10:42:28;;;;;;;2.55;2.10;;;;;;;22.05;55.95;93768.47;5070159;28;20035;-91
2023/08/13 10:45:04;;;;;;;2.97;2.67;;;;;;;22.06;56.01;93773.47;5105380;28;20044;-92
2023/08/13 10:47:53;;;;;;;2.33;2.13;;;;;;;22.06;55.77;93780.97;5076123;28;20317;-93
2023/08/13 10:50:22;;;;;;;3.03;2.30;;;;;;;22.07;56.04;93771.44;5089944;28;20468;-92
2023/08/13 10:52:50;;;;;;;3.45;2.22;;;;;;;22.07;56.13;93765.94;5099192;28;20032;-93
2023/08/13 10:55:23;;;;;;;3.13;2.78;;;;;;;22.08;56.19;93757.16;5067444;28;20506;-92
2023/08/13 10:57:50;;;;;;;2.75;2.45;;;;;;;22.08;56.00;93753.66;5089199;28;20044;-91
2023/08/13 11:00:15;;;;;;;2.72;2.30;;;;;;;22.08;55.98;93753.66;5056230;28;20036;-91
2023/08/13 11:02:43;;;;;;;3.28;2.42;;;;;;;22.07;56.18;93749.41;5080343;28;20042;-93
2023/08/13 11:05:09;;;;;;;2.40;2.20;;;;;;;22.09;56.06;93744.09;5067893;28;20041;-91
2023/08/13 11:07:35;;;;;;;4.15;2.45;;;;;;;22.08;55.91;93739.91;5071352;28;20051;-92
2023/08/13 11:10:03;;;;;;;4.47;2.95;;;;;;;22.07;56.15;93741.16;5073544;28;20511;-91
2023/08/13 11:12:28;;;;;;;3.95;2.70;;;;;;;22.08;56.27;93750.91;5055412;28;20032;-92
2023/08/13 11:14:54;;;;;;;2.83;2.40;;;;;;;22.08;55.93;93748.91;5074765;28;20044;-92
2023/08/13 11:17:19;;;;;;;2.75;2.30;;;;;;;22.08;55.87;93751.66;5073178;28;20085;-91
2023/08/13 11:19:46;;;;;;;2.42;2.22;;;;;;;22.08;55.98;93759.16;5071498;28;20032;-93
2023/08/13 11:22:11;;;;;;;4.15;2.60;;;;;;;22.09;56.03;93755.13;5095388;28;20037;-93
2023/08/13 11:24:36;;;;;;;3.17;2.85;;;;;;;22.10;56.17;93749.09;5072965;28;20442;-92
2023/08/13 11:27:02;;;;;;;2.95;2.67;;;;;;;22.08;56.10;93759.16;5096370;28;20050;-92
2023/08/13 11:29:28;;;;;;;3.22;2.65;;;;;;;22.09;56.28;93766.13;5079332;28;20036;-91
2023/08/13 11:31:53;;;;;;;3.10;2.80;;;;;;;22.08;56.01;93757.16;5058940;28;20385;-91
2023/08/13 11:34:19;;;;;;;2.78;2.47;;;;;;;22.09;56.35;93744.84;5075452;28;20497;-93